Aérodrome :
LOGIN :

S'inscrire | Disclaimer

   EN    FR    IT 

 










Légende :    VFR   VFR Marginal   IFR   IFR Intensif   IFR Très Intensif
Visi : 
Plafond : 
>= 8 km
>= 3000ft
5 à 8 km
1000 à 3000 ft
1500m à 5 km
500 à 1000 ft
800 à 1500m
200 à 500 ft
< 800m
< 200 ft
Symboles :   Orages  Brouillard  Fortes neiges  Fortes précipitations  Vent > 20 kt
SIGMETs :   Divers  Orages  Givrage  Turbulence  Onde Orograph.  Cendres Volcan.






- Altitude de l'aérodrome : 22 ft
- Code IATA : LDY


EGAE - Londonderry Eglington

DERNIER METAR :
  • 231150Z 21021KT 9999 -RA FEW015 SCT048 12/09 Q1003

METARs EXPIRÉS :
  • 231120Z 21021G31KT 9999 -SHRA FEW016 12/09 Q1003
  • 231050Z 21023G33KT 9999 -RA FEW016 SCT035 13/09 Q1003
  • 231020Z 21023G33KT 9999 FEW023 SCT030 13/09 Q1003
  • 230950Z 20015G27KT 9999 FEW023 SCT030 12/09 Q1004
  • 230920Z 19015G25KT 9999 FEW017 SCT030 12/09 Q1005

TAF TAF EGAE
Valide du 23 à 12h jusqu'au 23 à 21h UTC


231105Z 2312/2321 20015KT 9999 FEW018 SCT035
TEMPO 2312/2321 20021G33KT
PROB40
TEMPO 2312/2320 7000 -RADZ RA BKN014



MET'MAP, la Météo Aéronautique d'un coup d'oeil ! - Copyright ORBIFLY Décembre 2007 - Disclaimer

ORBIFLY MET'MAP TEAM :

Programmation & Développement : Alexandra Zaïnal
Conception & Développement : Baudouin d'Aumeries
Co-Programmation & Développement : Marc-Olivier Méhu
Soutien technique & logistique : Manuel Goepfert

Contact : metmap@orbifly.com




SOURCES & CREDITS :

   NOAA